sensor_id;sensor_type;location;lat;lon;timestamp;P1;durP1;ratioP1;P2;durP2;ratioP2
19944;SDS011;10134;50.952;6.930;2022-12-29T00:00:04;1.02;;;0.70;;
19944;SDS011;10134;50.952;6.930;2022-12-29T00:02:39;0.88;;;0.70;;
19944;SDS011;10134;50.952;6.930;2022-12-29T00:05:06;1.17;;;0.70;;
19944;SDS011;10134;50.952;6.930;2022-12-29T00:07:34;0.70;;;0.70;;
19944;SDS011;10134;50.952;6.930;2022-12-29T00:10:01;0.82;;;0.73;;
19944;SDS011;10134;50.952;6.930;2022-12-29T00:12:29;0.57;;;0.57;;
19944;SDS011;10134;50.952;6.930;2022-12-29T00:15:16;1.45;;;0.85;;
19944;SDS011;10134;50.952;6.930;2022-12-29T00:18:02;0.82;;;0.70;;
19944;SDS011;10134;50.952;6.930;2022-12-29T00:20:29;0.60;;;0.60;;
19944;SDS011;10134;50.952;6.930;2022-12-29T00:23:19;2.00;;;0.60;;
19944;SDS011;10134;50.952;6.930;2022-12-29T00:26:09;0.45;;;0.43;;
19944;SDS011;10134;50.952;6.930;2022-12-29T00:29:02;0.57;;;0.43;;
19944;SDS011;10134;50.952;6.930;2022-12-29T00:31:48;0.93;;;0.52;;
19944;SDS011;10134;50.952;6.930;2022-12-29T00:34:33;0.57;;;0.40;;
19944;SDS011;10134;50.952;6.930;2022-12-29T00:37:20;0.93;;;0.50;;
19944;SDS011;10134;50.952;6.930;2022-12-29T00:40:07;0.88;;;0.60;;
19944;SDS011;10134;50.952;6.930;2022-12-29T00:42:53;0.50;;;0.50;;
19944;SDS011;10134;50.952;6.930;2022-12-29T00:45:40;0.30;;;0.30;;
19944;SDS011;10134;50.952;6.930;2022-12-29T00:48:08;0.40;;;0.32;;
19944;SDS011;10134;50.952;6.930;2022-12-29T00:50:35;0.40;;;0.40;;
19944;SDS011;10134;50.952;6.930;2022-12-29T00:53:03;2.05;;;0.70;;
19944;SDS011;10134;50.952;6.930;2022-12-29T00:55:30;1.13;;;0.47;;
19944;SDS011;10134;50.952;6.930;2022-12-29T00:57:57;0.65;;;0.30;;
19944;SDS011;10134;50.952;6.930;2022-12-29T01:00:25;0.20;;;0.20;;
19944;SDS011;10134;50.952;6.930;2022-12-29T01:02:52;0.30;;;0.30;;
19944;SDS011;10134;50.952;6.930;2022-12-29T01:05:20;0.35;;;0.35;;
19944;SDS011;10134;50.952;6.930;2022-12-29T01:07:47;0.68;;;0.30;;
19944;SDS011;10134;50.952;6.930;2022-12-29T01:10:14;0.45;;;0.22;;
19944;SDS011;10134;50.952;6.930;2022-12-29T01:12:41;0.32;;;0.22;;
19944;SDS011;10134;50.952;6.930;2022-12-29T01:15:11;0.30;;;0.20;;
19944;SDS011;10134;50.952;6.930;2022-12-29T01:17:41;0.40;;;0.30;;
19944;SDS011;10134;50.952;6.930;2022-12-29T01:20:08;0.15;;;0.15;;
19944;SDS011;10134;50.952;6.930;2022-12-29T01:22:37;0.20;;;0.20;;
19944;SDS011;10134;50.952;6.930;2022-12-29T01:25:05;0.30;;;0.30;;
19944;SDS011;10134;50.952;6.930;2022-12-29T01:27:34;0.20;;;0.20;;
19944;SDS011;10134;50.952;6.930;2022-12-29T01:30:01;0.40;;;0.40;;
19944;SDS011;10134;50.952;6.930;2022-12-29T01:32:31;0.20;;;0.20;;
19944;SDS011;10134;50.952;6.930;2022-12-29T01:34:58;0.20;;;0.20;;
19944;SDS011;10134;50.952;6.930;2022-12-29T01:37:25;0.30;;;0.30;;
19944;SDS011;10134;50.952;6.930;2022-12-29T01:39:53;0.30;;;0.30;;
19944;SDS011;10134;50.952;6.930;2022-12-29T01:42:23;0.20;;;0.20;;
19944;SDS011;10134;50.952;6.930;2022-12-29T01:44:56;0.30;;;0.30;;
19944;SDS011;10134;50.952;6.930;2022-12-29T01:47:40;0.63;;;0.40;;
19944;SDS011;10134;50.952;6.930;2022-12-29T01:50:20;0.38;;;0.30;;
19944;SDS011;10134;50.952;6.930;2022-12-29T01:55:24;0.60;;;0.30;;
19944;SDS011;10134;50.952;6.930;2022-12-29T01:57:53;0.73;;;0.30;;
19944;SDS011;10134;50.952;6.930;2022-12-29T02:00:26;0.40;;;0.40;;
19944;SDS011;10134;50.952;6.930;2022-12-29T02:02:53;0.60;;;0.32;;
19944;SDS011;10134;50.952;6.930;2022-12-29T02:05:34;0.55;;;0.40;;
19944;SDS011;10134;50.952;6.930;2022-12-29T02:08:13;0.57;;;0.40;;
19944;SDS011;10134;50.952;6.930;2022-12-29T02:10:40;1.95;;;0.43;;
19944;SDS011;10134;50.952;6.930;2022-12-29T02:13:09;0.70;;;0.30;;
19944;SDS011;10134;50.952;6.930;2022-12-29T02:15:47;2.92;;;0.40;;
19944;SDS011;10134;50.952;6.930;2022-12-29T02:18:44;0.65;;;0.40;;
19944;SDS011;10134;50.952;6.930;2022-12-29T02:21:52;0.70;;;0.30;;
19944;SDS011;10134;50.952;6.930;2022-12-29T02:24:48;0.40;;;0.40;;
19944;SDS011;10134;50.952;6.930;2022-12-29T02:27:36;0.40;;;0.40;;
19944;SDS011;10134;50.952;6.930;2022-12-29T02:38:28;2.67;;;0.60;;
19944;SDS011;10134;50.952;6.930;2022-12-29T02:41:10;1.50;;;0.98;;
19944;SDS011;10134;50.952;6.930;2022-12-29T02:43:59;0.70;;;0.60;;
19944;SDS011;10134;50.952;6.930;2022-12-29T02:46:37;0.52;;;0.45;;
19944;SDS011;10134;50.952;6.930;2022-12-29T02:49:26;5.13;;;0.65;;
19944;SDS011;10134;50.952;6.930;2022-12-29T02:52:01;4.55;;;0.68;;
19944;SDS011;10134;50.952;6.930;2022-12-29T02:54:43;0.82;;;0.40;;
19944;SDS011;10134;50.952;6.930;2022-12-29T02:57:13;1.08;;;0.57;;
19944;SDS011;10134;50.952;6.930;2022-12-29T03:00:06;0.88;;;0.50;;
19944;SDS011;10134;50.952;6.930;2022-12-29T03:02:39;0.50;;;0.50;;
19944;SDS011;10134;50.952;6.930;2022-12-29T03:08:39;1.95;;;0.60;;
19944;SDS011;10134;50.952;6.930;2022-12-29T03:11:16;1.17;;;0.63;;
19944;SDS011;10134;50.952;6.930;2022-12-29T03:14:06;1.48;;;0.40;;
19944;SDS011;10134;50.952;6.930;2022-12-29T03:16:59;0.60;;;0.35;;
19944;SDS011;10134;50.952;6.930;2022-12-29T03:19:42;0.43;;;0.40;;
19944;SDS011;10134;50.952;6.930;2022-12-29T03:22:15;0.32;;;0.32;;
19944;SDS011;10134;50.952;6.930;2022-12-29T03:25:06;0.52;;;0.50;;
19944;SDS011;10134;50.952;6.930;2022-12-29T03:27:57;3.00;;;0.50;;
19944;SDS011;10134;50.952;6.930;2022-12-29T03:30:29;0.63;;;0.35;;
19944;SDS011;10134;50.952;6.930;2022-12-29T03:33:02;2.45;;;0.90;;
19944;SDS011;10134;50.952;6.930;2022-12-29T03:35:35;0.32;;;0.32;;
19944;SDS011;10134;50.952;6.930;2022-12-29T03:38:11;2.28;;;0.30;;
19944;SDS011;10134;50.952;6.930;2022-12-29T03:40:46;0.20;;;0.20;;
19944;SDS011;10134;50.952;6.930;2022-12-29T03:43:16;0.75;;;0.45;;
19944;SDS011;10134;50.952;6.930;2022-12-29T03:45:45;0.30;;;0.30;;
19944;SDS011;10134;50.952;6.930;2022-12-29T03:48:13;0.80;;;0.40;;
19944;SDS011;10134;50.952;6.930;2022-12-29T03:50:41;0.68;;;0.30;;
19944;SDS011;10134;50.952;6.930;2022-12-29T03:53:08;2.53;;;0.43;;
19944;SDS011;10134;50.952;6.930;2022-12-29T03:55:37;0.70;;;0.35;;
19944;SDS011;10134;50.952;6.930;2022-12-29T03:58:04;0.85;;;0.45;;
19944;SDS011;10134;50.952;6.930;2022-12-29T04:00:46;1.48;;;0.50;;
19944;SDS011;10134;50.952;6.930;2022-12-29T04:03:14;1.80;;;0.40;;
19944;SDS011;10134;50.952;6.930;2022-12-29T04:05:44;1.40;;;0.40;;
19944;SDS011;10134;50.952;6.930;2022-12-29T04:08:11;3.25;;;0.40;;
19944;SDS011;10134;50.952;6.930;2022-12-29T04:10:38;0.47;;;0.32;;
19944;SDS011;10134;50.952;6.930;2022-12-29T04:13:06;0.47;;;0.40;;
19944;SDS011;10134;50.952;6.930;2022-12-29T04:15:33;1.38;;;0.52;;
19944;SDS011;10134;50.952;6.930;2022-12-29T04:18:02;0.40;;;0.40;;
19944;SDS011;10134;50.952;6.930;2022-12-29T04:20:29;0.40;;;0.40;;
19944;SDS011;10134;50.952;6.930;2022-12-29T04:23:15;0.57;;;0.45;;
19944;SDS011;10134;50.952;6.930;2022-12-29T04:25:44;0.75;;;0.50;;
19944;SDS011;10134;50.952;6.930;2022-12-29T04:28:15;0.57;;;0.52;;
19944;SDS011;10134;50.952;6.930;2022-12-29T04:30:59;0.50;;;0.43;;
19944;SDS011;10134;50.952;6.930;2022-12-29T04:33:35;0.63;;;0.50;;
19944;SDS011;10134;50.952;6.930;2022-12-29T04:36:02;0.77;;;0.50;;
19944;SDS011;10134;50.952;6.930;2022-12-29T04:38:30;3.28;;;0.63;;
19944;SDS011;10134;50.952;6.930;2022-12-29T04:40:59;1.25;;;0.43;;
19944;SDS011;10134;50.952;6.930;2022-12-29T04:43:28;0.50;;;0.40;;
19944;SDS011;10134;50.952;6.930;2022-12-29T04:46:12;1.33;;;0.73;;
19944;SDS011;10134;50.952;6.930;2022-12-29T04:48:48;1.27;;;0.63;;
19944;SDS011;10134;50.952;6.930;2022-12-29T04:51:25;1.20;;;0.60;;
19944;SDS011;10134;50.952;6.930;2022-12-29T04:53:53;1.77;;;0.75;;
19944;SDS011;10134;50.952;6.930;2022-12-29T04:56:20;0.68;;;0.52;;
19944;SDS011;10134;50.952;6.930;2022-12-29T04:58:47;0.60;;;0.45;;
19944;SDS011;10134;50.952;6.930;2022-12-29T05:01:15;1.00;;;0.60;;
19944;SDS011;10134;50.952;6.930;2022-12-29T05:03:42;1.92;;;0.60;;
19944;SDS011;10134;50.952;6.930;2022-12-29T05:06:10;1.15;;;0.55;;
19944;SDS011;10134;50.952;6.930;2022-12-29T05:08:37;1.35;;;0.60;;
19944;SDS011;10134;50.952;6.930;2022-12-29T05:11:05;1.23;;;0.50;;
19944;SDS011;10134;50.952;6.930;2022-12-29T05:13:33;1.17;;;0.43;;
19944;SDS011;10134;50.952;6.930;2022-12-29T05:16:01;0.47;;;0.47;;
19944;SDS011;10134;50.952;6.930;2022-12-29T05:18:28;0.90;;;0.52;;
19944;SDS011;10134;50.952;6.930;2022-12-29T05:20:58;1.52;;;0.57;;
19944;SDS011;10134;50.952;6.930;2022-12-29T05:23:25;1.13;;;0.50;;
19944;SDS011;10134;50.952;6.930;2022-12-29T05:25:57;0.65;;;0.45;;
19944;SDS011;10134;50.952;6.930;2022-12-29T05:28:43;3.17;;;0.47;;
19944;SDS011;10134;50.952;6.930;2022-12-29T05:31:16;2.30;;;0.45;;
19944;SDS011;10134;50.952;6.930;2022-12-29T05:33:44;0.90;;;0.47;;
19944;SDS011;10134;50.952;6.930;2022-12-29T05:36:12;0.40;;;0.32;;
19944;SDS011;10134;50.952;6.930;2022-12-29T05:38:44;1.83;;;0.73;;
19944;SDS011;10134;50.952;6.930;2022-12-29T05:41:12;2.58;;;0.70;;
19944;SDS011;10134;50.952;6.930;2022-12-29T05:44:05;0.70;;;0.43;;
19944;SDS011;10134;50.952;6.930;2022-12-29T05:46:53;0.40;;;0.38;;
19944;SDS011;10134;50.952;6.930;2022-12-29T05:49:42;2.25;;;0.60;;
19944;SDS011;10134;50.952;6.930;2022-12-29T05:52:35;0.75;;;0.47;;
19944;SDS011;10134;50.952;6.930;2022-12-29T05:55:02;1.25;;;0.35;;
19944;SDS011;10134;50.952;6.930;2022-12-29T05:57:32;0.38;;;0.38;;
19944;SDS011;10134;50.952;6.930;2022-12-29T06:00:08;0.77;;;0.38;;
19944;SDS011;10134;50.952;6.930;2022-12-29T06:02:45;0.47;;;0.45;;
19944;SDS011;10134;50.952;6.930;2022-12-29T06:05:14;1.77;;;0.50;;
19944;SDS011;10134;50.952;6.930;2022-12-29T06:07:42;0.88;;;0.60;;
19944;SDS011;10134;50.952;6.930;2022-12-29T06:10:13;1.58;;;0.60;;
19944;SDS011;10134;50.952;6.930;2022-12-29T06:12:53;1.30;;;0.40;;
19944;SDS011;10134;50.952;6.930;2022-12-29T06:15:20;2.67;;;0.60;;
19944;SDS011;10134;50.952;6.930;2022-12-29T06:17:52;1.45;;;0.50;;
19944;SDS011;10134;50.952;6.930;2022-12-29T06:20:20;0.20;;;0.20;;
19944;SDS011;10134;50.952;6.930;2022-12-29T06:22:47;1.48;;;0.57;;
19944;SDS011;10134;50.952;6.930;2022-12-29T06:25:15;0.45;;;0.38;;
19944;SDS011;10134;50.952;6.930;2022-12-29T06:27:43;0.30;;;0.30;;
19944;SDS011;10134;50.952;6.930;2022-12-29T06:30:11;0.55;;;0.30;;
19944;SDS011;10134;50.952;6.930;2022-12-29T06:32:40;2.42;;;0.43;;
19944;SDS011;10134;50.952;6.930;2022-12-29T06:35:10;1.95;;;0.40;;
19944;SDS011;10134;50.952;6.930;2022-12-29T06:37:43;0.52;;;0.30;;
19944;SDS011;10134;50.952;6.930;2022-12-29T06:40:10;1.42;;;0.32;;
19944;SDS011;10134;50.952;6.930;2022-12-29T06:42:56;0.40;;;0.30;;
19944;SDS011;10134;50.952;6.930;2022-12-29T06:45:49;0.77;;;0.57;;
19944;SDS011;10134;50.952;6.930;2022-12-29T06:48:17;3.53;;;0.65;;
19944;SDS011;10134;50.952;6.930;2022-12-29T06:50:44;1.00;;;0.50;;
19944;SDS011;10134;50.952;6.930;2022-12-29T06:53:11;2.47;;;0.50;;
19944;SDS011;10134;50.952;6.930;2022-12-29T06:55:40;2.67;;;0.73;;
19944;SDS011;10134;50.952;6.930;2022-12-29T06:58:08;1.20;;;0.50;;
19944;SDS011;10134;50.952;6.930;2022-12-29T07:00:36;0.50;;;0.30;;
19944;SDS011;10134;50.952;6.930;2022-12-29T07:03:03;1.70;;;0.57;;
19944;SDS011;10134;50.952;6.930;2022-12-29T07:05:32;1.73;;;0.50;;
19944;SDS011;10134;50.952;6.930;2022-12-29T07:08:02;1.10;;;0.60;;
19944;SDS011;10134;50.952;6.930;2022-12-29T07:10:32;0.90;;;0.38;;
19944;SDS011;10134;50.952;6.930;2022-12-29T07:12:59;0.82;;;0.75;;
19944;SDS011;10134;50.952;6.930;2022-12-29T07:15:26;0.35;;;0.35;;
19944;SDS011;10134;50.952;6.930;2022-12-29T07:17:53;0.75;;;0.28;;
19944;SDS011;10134;50.952;6.930;2022-12-29T07:20:21;1.15;;;0.40;;
19944;SDS011;10134;50.952;6.930;2022-12-29T07:22:53;0.50;;;0.50;;
19944;SDS011;10134;50.952;6.930;2022-12-29T07:25:20;1.85;;;0.30;;
19944;SDS011;10134;50.952;6.930;2022-12-29T07:27:48;2.58;;;0.47;;
19944;SDS011;10134;50.952;6.930;2022-12-29T07:30:15;1.35;;;0.45;;
19944;SDS011;10134;50.952;6.930;2022-12-29T07:32:43;0.93;;;0.43;;
19944;SDS011;10134;50.952;6.930;2022-12-29T07:35:10;2.20;;;1.27;;
19944;SDS011;10134;50.952;6.930;2022-12-29T07:37:37;0.77;;;0.50;;
19944;SDS011;10134;50.952;6.930;2022-12-29T07:40:05;1.75;;;0.40;;
19944;SDS011;10134;50.952;6.930;2022-12-29T07:42:33;0.63;;;0.38;;
19944;SDS011;10134;50.952;6.930;2022-12-29T07:45:00;0.50;;;0.40;;
19944;SDS011;10134;50.952;6.930;2022-12-29T07:47:47;0.60;;;0.40;;
19944;SDS011;10134;50.952;6.930;2022-12-29T07:50:16;2.63;;;0.50;;
19944;SDS011;10134;50.952;6.930;2022-12-29T07:52:43;1.88;;;0.50;;
19944;SDS011;10134;50.952;6.930;2022-12-29T07:55:11;2.33;;;0.90;;
19944;SDS011;10134;50.952;6.930;2022-12-29T07:57:39;1.35;;;0.65;;
19944;SDS011;10134;50.952;6.930;2022-12-29T08:00:06;1.13;;;0.60;;
19944;SDS011;10134;50.952;6.930;2022-12-29T08:02:37;2.97;;;0.52;;
19944;SDS011;10134;50.952;6.930;2022-12-29T08:05:05;1.10;;;1.00;;
19944;SDS011;10134;50.952;6.930;2022-12-29T08:07:32;1.40;;;0.50;;
19944;SDS011;10134;50.952;6.930;2022-12-29T08:10:00;4.28;;;1.20;;
19944;SDS011;10134;50.952;6.930;2022-12-29T08:12:28;2.42;;;0.98;;
19944;SDS011;10134;50.952;6.930;2022-12-29T08:14:57;6.38;;;0.75;;
19944;SDS011;10134;50.952;6.930;2022-12-29T08:17:24;3.05;;;0.75;;
19944;SDS011;10134;50.952;6.930;2022-12-29T08:19:52;2.78;;;0.60;;
19944;SDS011;10134;50.952;6.930;2022-12-29T08:22:19;5.70;;;1.08;;
19944;SDS011;10134;50.952;6.930;2022-12-29T08:24:46;0.98;;;0.70;;
19944;SDS011;10134;50.952;6.930;2022-12-29T08:27:14;2.30;;;0.82;;
19944;SDS011;10134;50.952;6.930;2022-12-29T08:29:47;4.50;;;0.80;;
19944;SDS011;10134;50.952;6.930;2022-12-29T08:32:15;2.15;;;0.70;;
19944;SDS011;10134;50.952;6.930;2022-12-29T08:34:42;3.03;;;0.80;;
19944;SDS011;10134;50.952;6.930;2022-12-29T08:37:09;4.15;;;1.17;;
19944;SDS011;10134;50.952;6.930;2022-12-29T08:39:37;2.33;;;1.10;;
19944;SDS011;10134;50.952;6.930;2022-12-29T08:42:04;4.97;;;0.98;;
19944;SDS011;10134;50.952;6.930;2022-12-29T08:44:32;2.95;;;0.77;;
19944;SDS011;10134;50.952;6.930;2022-12-29T08:47:00;6.68;;;0.70;;
19944;SDS011;10134;50.952;6.930;2022-12-29T08:49:27;3.08;;;0.80;;
19944;SDS011;10134;50.952;6.930;2022-12-29T08:51:55;5.53;;;1.00;;
19944;SDS011;10134;50.952;6.930;2022-12-29T08:54:22;1.98;;;0.82;;
19944;SDS011;10134;50.952;6.930;2022-12-29T08:56:49;1.80;;;0.80;;
19944;SDS011;10134;50.952;6.930;2022-12-29T08:59:17;2.42;;;0.80;;
19944;SDS011;10134;50.952;6.930;2022-12-29T09:01:47;2.08;;;0.90;;
19944;SDS011;10134;50.952;6.930;2022-12-29T09:04:14;4.78;;;1.00;;
19944;SDS011;10134;50.952;6.930;2022-12-29T09:06:44;2.67;;;0.85;;
19944;SDS011;10134;50.952;6.930;2022-12-29T09:09:12;4.05;;;1.10;;
19944;SDS011;10134;50.952;6.930;2022-12-29T09:11:42;2.35;;;0.70;;
19944;SDS011;10134;50.952;6.930;2022-12-29T09:14:10;1.23;;;0.55;;
19944;SDS011;10134;50.952;6.930;2022-12-29T09:16:38;4.15;;;0.75;;
19944;SDS011;10134;50.952;6.930;2022-12-29T09:19:25;2.95;;;1.13;;
19944;SDS011;10134;50.952;6.930;2022-12-29T09:21:53;5.70;;;2.15;;
19944;SDS011;10134;50.952;6.930;2022-12-29T09:24:20;5.00;;;0.85;;
19944;SDS011;10134;50.952;6.930;2022-12-29T09:26:47;4.15;;;0.77;;
19944;SDS011;10134;50.952;6.930;2022-12-29T09:29:15;2.05;;;0.55;;
19944;SDS011;10134;50.952;6.930;2022-12-29T09:31:42;6.78;;;0.65;;
19944;SDS011;10134;50.952;6.930;2022-12-29T09:34:10;5.88;;;1.10;;
19944;SDS011;10134;50.952;6.930;2022-12-29T09:36:37;4.60;;;1.10;;
19944;SDS011;10134;50.952;6.930;2022-12-29T09:39:04;6.80;;;1.10;;
19944;SDS011;10134;50.952;6.930;2022-12-29T09:41:39;5.47;;;1.10;;
19944;SDS011;10134;50.952;6.930;2022-12-29T09:44:23;6.18;;;0.88;;
19944;SDS011;10134;50.952;6.930;2022-12-29T09:46:58;4.32;;;0.95;;
19944;SDS011;10134;50.952;6.930;2022-12-29T09:52:13;3.85;;;0.90;;
19944;SDS011;10134;50.952;6.930;2022-12-29T09:54:53;2.55;;;0.60;;
19944;SDS011;10134;50.952;6.930;2022-12-29T10:00:19;6.93;;;0.80;;
19944;SDS011;10134;50.952;6.930;2022-12-29T10:07:44;5.07;;;1.00;;
19944;SDS011;10134;50.952;6.930;2022-12-29T10:10:01;6.63;;;2.63;;
19944;SDS011;10134;50.952;6.930;2022-12-29T10:17:47;3.67;;;1.25;;
19944;SDS011;10134;50.952;6.930;2022-12-29T10:20:23;2.67;;;0.90;;
19944;SDS011;10134;50.952;6.930;2022-12-29T10:23:11;3.47;;;0.80;;
19944;SDS011;10134;50.952;6.930;2022-12-29T10:25:57;4.65;;;1.20;;
19944;SDS011;10134;50.952;6.930;2022-12-29T10:31:01;2.20;;;0.73;;
19944;SDS011;10134;50.952;6.930;2022-12-29T10:33:36;2.17;;;0.80;;
19944;SDS011;10134;50.952;6.930;2022-12-29T10:36:12;3.22;;;1.17;;
19944;SDS011;10134;50.952;6.930;2022-12-29T10:44:42;1.95;;;0.88;;
19944;SDS011;10134;50.952;6.930;2022-12-29T10:47:12;3.65;;;0.93;;
19944;SDS011;10134;50.952;6.930;2022-12-29T10:49:47;4.85;;;1.33;;
19944;SDS011;10134;50.952;6.930;2022-12-29T10:52:15;3.33;;;1.00;;
19944;SDS011;10134;50.952;6.930;2022-12-29T10:57:31;2.35;;;0.82;;
19944;SDS011;10134;50.952;6.930;2022-12-29T11:00:09;3.97;;;1.30;;
19944;SDS011;10134;50.952;6.930;2022-12-29T11:03:07;6.20;;;0.80;;
19944;SDS011;10134;50.952;6.930;2022-12-29T11:08:30;3.20;;;1.10;;
19944;SDS011;10134;50.952;6.930;2022-12-29T11:11:03;2.92;;;1.10;;
19944;SDS011;10134;50.952;6.930;2022-12-29T11:14:20;3.70;;;0.70;;
19944;SDS011;10134;50.952;6.930;2022-12-29T11:16:39;2.72;;;0.85;;
19944;SDS011;10134;50.952;6.930;2022-12-29T11:19:21;6.60;;;1.63;;
19944;SDS011;10134;50.952;6.930;2022-12-29T11:21:49;2.35;;;0.60;;
19944;SDS011;10134;50.952;6.930;2022-12-29T11:26:54;3.42;;;0.80;;
19944;SDS011;10134;50.952;6.930;2022-12-29T11:29:38;4.00;;;0.70;;
19944;SDS011;10134;50.952;6.930;2022-12-29T11:32:20;6.25;;;1.70;;
19944;SDS011;10134;50.952;6.930;2022-12-29T11:34:58;6.20;;;1.92;;
19944;SDS011;10134;50.952;6.930;2022-12-29T11:37:38;3.63;;;1.00;;
19944;SDS011;10134;50.952;6.930;2022-12-29T11:40:14;4.00;;;1.60;;
19944;SDS011;10134;50.952;6.930;2022-12-29T11:42:48;5.40;;;1.00;;
19944;SDS011;10134;50.952;6.930;2022-12-29T11:45:20;5.55;;;1.25;;
19944;SDS011;10134;50.952;6.930;2022-12-29T11:47:55;4.65;;;1.13;;
19944;SDS011;10134;50.952;6.930;2022-12-29T11:50:26;3.42;;;1.02;;
19944;SDS011;10134;50.952;6.930;2022-12-29T11:53:00;1.50;;;0.70;;
19944;SDS011;10134;50.952;6.930;2022-12-29T11:55:30;5.70;;;1.08;;
19944;SDS011;10134;50.952;6.930;2022-12-29T11:58:00;4.35;;;1.35;;
19944;SDS011;10134;50.952;6.930;2022-12-29T12:00:31;6.63;;;1.27;;
19944;SDS011;10134;50.952;6.930;2022-12-29T12:05:55;5.72;;;1.02;;
19944;SDS011;10134;50.952;6.930;2022-12-29T12:14:19;2.75;;;1.23;;
19944;SDS011;10134;50.952;6.930;2022-12-29T12:23:22;5.75;;;1.23;;
19944;SDS011;10134;50.952;6.930;2022-12-29T12:26:03;6.88;;;2.05;;
19944;SDS011;10134;50.952;6.930;2022-12-29T12:28:52;5.63;;;1.38;;
19944;SDS011;10134;50.952;6.930;2022-12-29T12:31:27;3.42;;;1.23;;
19944;SDS011;10134;50.952;6.930;2022-12-29T12:34:01;2.20;;;0.90;;
19944;SDS011;10134;50.952;6.930;2022-12-29T12:36:46;3.63;;;1.15;;
19944;SDS011;10134;50.952;6.930;2022-12-29T12:44:58;9.52;;;1.35;;
19944;SDS011;10134;50.952;6.930;2022-12-29T12:51:01;4.95;;;1.23;;
19944;SDS011;10134;50.952;6.930;2022-12-29T12:59:07;2.85;;;1.20;;
19944;SDS011;10134;50.952;6.930;2022-12-29T13:01:55;6.93;;;1.30;;
19944;SDS011;10134;50.952;6.930;2022-12-29T13:04:53;4.97;;;1.35;;
19944;SDS011;10134;50.952;6.930;2022-12-29T13:13:23;4.10;;;1.13;;
19944;SDS011;10134;50.952;6.930;2022-12-29T13:19:08;6.88;;;1.00;;
19944;SDS011;10134;50.952;6.930;2022-12-29T13:27:40;2.70;;;0.95;;
19944;SDS011;10134;50.952;6.930;2022-12-29T13:30:18;6.32;;;1.88;;
19944;SDS011;10134;50.952;6.930;2022-12-29T13:35:51;9.38;;;2.50;;
19944;SDS011;10134;50.952;6.930;2022-12-29T13:38:51;7.32;;;2.13;;
19944;SDS011;10134;50.952;6.930;2022-12-29T13:41:29;7.32;;;1.52;;
19944;SDS011;10134;50.952;6.930;2022-12-29T13:43:57;5.15;;;1.70;;
19944;SDS011;10134;50.952;6.930;2022-12-29T13:46:38;4.38;;;1.60;;
19944;SDS011;10134;50.952;6.930;2022-12-29T13:49:11;5.63;;;2.67;;
19944;SDS011;10134;50.952;6.930;2022-12-29T13:51:55;12.65;;;1.95;;
19944;SDS011;10134;50.952;6.930;2022-12-29T13:54:28;5.65;;;1.23;;
19944;SDS011;10134;50.952;6.930;2022-12-29T13:59:51;6.93;;;2.55;;
19944;SDS011;10134;50.952;6.930;2022-12-29T14:05:03;7.03;;;2.22;;
19944;SDS011;10134;50.952;6.930;2022-12-29T14:08:11;4.10;;;1.20;;
19944;SDS011;10134;50.952;6.930;2022-12-29T14:10:48;6.35;;;1.20;;
19944;SDS011;10134;50.952;6.930;2022-12-29T14:13:21;3.42;;;1.90;;
19944;SDS011;10134;50.952;6.930;2022-12-29T14:15:53;8.00;;;2.15;;
19944;SDS011;10134;50.952;6.930;2022-12-29T14:18:28;10.05;;;4.75;;
19944;SDS011;10134;50.952;6.930;2022-12-29T14:21:01;5.57;;;2.33;;
19944;SDS011;10134;50.952;6.930;2022-12-29T14:24:26;7.80;;;2.55;;
19944;SDS011;10134;50.952;6.930;2022-12-29T14:38:17;2.42;;;1.60;;
19944;SDS011;10134;50.952;6.930;2022-12-29T14:40:47;6.93;;;2.17;;
19944;SDS011;10134;50.952;6.930;2022-12-29T14:43:20;3.85;;;1.30;;
19944;SDS011;10134;50.952;6.930;2022-12-29T14:45:57;6.97;;;1.48;;
19944;SDS011;10134;50.952;6.930;2022-12-29T14:48:29;2.60;;;1.10;;
19944;SDS011;10134;50.952;6.930;2022-12-29T14:55:57;1.92;;;1.35;;
19944;SDS011;10134;50.952;6.930;2022-12-29T15:02:40;5.88;;;1.25;;
19944;SDS011;10134;50.952;6.930;2022-12-29T15:05:32;7.97;;;2.33;;
19944;SDS011;10134;50.952;6.930;2022-12-29T15:08:19;6.63;;;1.70;;
19944;SDS011;10134;50.952;6.930;2022-12-29T15:13:34;7.22;;;2.47;;
19944;SDS011;10134;50.952;6.930;2022-12-29T15:16:04;4.38;;;1.60;;
19944;SDS011;10134;50.952;6.930;2022-12-29T15:30:37;5.13;;;1.42;;
19944;SDS011;10134;50.952;6.930;2022-12-29T15:33:20;8.40;;;1.98;;
19944;SDS011;10134;50.952;6.930;2022-12-29T15:35:50;5.75;;;1.27;;
19944;SDS011;10134;50.952;6.930;2022-12-29T15:38:23;8.80;;;2.08;;
19944;SDS011;10134;50.952;6.930;2022-12-29T15:44:23;9.30;;;1.60;;
19944;SDS011;10134;50.952;6.930;2022-12-29T15:46:55;4.50;;;1.10;;
19944;SDS011;10134;50.952;6.930;2022-12-29T15:53:48;7.60;;;1.15;;
19944;SDS011;10134;50.952;6.930;2022-12-29T15:56:35;6.82;;;1.52;;
19944;SDS011;10134;50.952;6.930;2022-12-29T16:03:48;6.38;;;1.42;;
19944;SDS011;10134;50.952;6.930;2022-12-29T16:11:31;2.97;;;1.65;;
19944;SDS011;10134;50.952;6.930;2022-12-29T16:16:56;5.90;;;1.95;;
19944;SDS011;10134;50.952;6.930;2022-12-29T16:19:28;8.32;;;1.92;;
19944;SDS011;10134;50.952;6.930;2022-12-29T16:22:00;6.43;;;1.85;;
19944;SDS011;10134;50.952;6.930;2022-12-29T16:24:30;3.60;;;1.60;;
19944;SDS011;10134;50.952;6.930;2022-12-29T16:27:02;6.78;;;1.40;;
19944;SDS011;10134;50.952;6.930;2022-12-29T16:29:36;4.30;;;1.27;;
19944;SDS011;10134;50.952;6.930;2022-12-29T16:32:18;4.15;;;1.75;;
19944;SDS011;10134;50.952;6.930;2022-12-29T16:35:02;5.93;;;1.50;;
19944;SDS011;10134;50.952;6.930;2022-12-29T16:40:56;8.48;;;1.83;;
19944;SDS011;10134;50.952;6.930;2022-12-29T16:48:21;10.68;;;1.73;;
19944;SDS011;10134;50.952;6.930;2022-12-29T16:51:03;4.75;;;1.23;;
19944;SDS011;10134;50.952;6.930;2022-12-29T16:53:34;5.07;;;1.55;;
19944;SDS011;10134;50.952;6.930;2022-12-29T16:56:15;7.25;;;2.10;;
19944;SDS011;10134;50.952;6.930;2022-12-29T16:58:46;7.50;;;1.98;;
19944;SDS011;10134;50.952;6.930;2022-12-29T17:01:19;6.55;;;1.50;;
19944;SDS011;10134;50.952;6.930;2022-12-29T17:03:51;6.30;;;1.95;;
19944;SDS011;10134;50.952;6.930;2022-12-29T17:06:22;5.25;;;2.33;;
19944;SDS011;10134;50.952;6.930;2022-12-29T17:08:50;9.70;;;2.97;;
19944;SDS011;10134;50.952;6.930;2022-12-29T17:11:27;8.48;;;2.53;;
19944;SDS011;10134;50.952;6.930;2022-12-29T17:14:33;3.67;;;1.90;;
19944;SDS011;10134;50.952;6.930;2022-12-29T17:20:25;8.05;;;2.47;;
19944;SDS011;10134;50.952;6.930;2022-12-29T17:22:55;4.20;;;1.80;;
19944;SDS011;10134;50.952;6.930;2022-12-29T17:25:33;7.97;;;2.00;;
19944;SDS011;10134;50.952;6.930;2022-12-29T17:28:11;6.35;;;2.10;;
19944;SDS011;10134;50.952;6.930;2022-12-29T17:30:49;5.00;;;2.00;;
19944;SDS011;10134;50.952;6.930;2022-12-29T17:33:18;6.90;;;2.53;;
19944;SDS011;10134;50.952;6.930;2022-12-29T17:35:46;8.95;;;2.97;;
19944;SDS011;10134;50.952;6.930;2022-12-29T17:38:28;9.48;;;2.90;;
19944;SDS011;10134;50.952;6.930;2022-12-29T17:40:57;9.90;;;3.67;;
19944;SDS011;10134;50.952;6.930;2022-12-29T17:43:25;12.20;;;3.63;;
19944;SDS011;10134;50.952;6.930;2022-12-29T17:46:02;7.78;;;3.10;;
19944;SDS011;10134;50.952;6.930;2022-12-29T17:48:32;9.00;;;2.35;;
19944;SDS011;10134;50.952;6.930;2022-12-29T17:50:59;10.05;;;2.70;;
19944;SDS011;10134;50.952;6.930;2022-12-29T17:53:27;9.70;;;3.70;;
19944;SDS011;10134;50.952;6.930;2022-12-29T17:55:56;18.35;;;10.05;;
19944;SDS011;10134;50.952;6.930;2022-12-29T17:58:25;12.85;;;6.25;;
19944;SDS011;10134;50.952;6.930;2022-12-29T18:00:55;5.43;;;2.65;;
19944;SDS011;10134;50.952;6.930;2022-12-29T18:03:34;9.40;;;3.28;;
19944;SDS011;10134;50.952;6.930;2022-12-29T18:06:04;7.22;;;2.60;;
19944;SDS011;10134;50.952;6.930;2022-12-29T18:08:34;7.30;;;2.50;;
19944;SDS011;10134;50.952;6.930;2022-12-29T18:11:02;9.93;;;3.20;;
19944;SDS011;10134;50.952;6.930;2022-12-29T18:13:31;10.15;;;2.72;;